Anacoco, Louisiana
Current Conditions -  °F | °C
As of 1:56 AM on Wednesday 26 Nov 2014 (Local Time) from KAQV Reporting Station
Clear Clear  
Wind Chill: 41°   Ceiling: Unl
Heat Index: 44°   Visibility: 10mi
Dew Point: 35°   Wind: 6mph
Humidity: 71%   Direction: 200°SSW
Pressure: 30.15"   Gusts: NA
Location:  31.25°N, 93.34°W
Report Text: KAQV 260756Z AUTO 20005KT 10SM CLR 07/02 A3015 RMK AO2 SLP211 T00670017
Loading
Personal Weather Stations






























Interactive Weather Map New forecast layout! Learn more

10-Day Weather Forecast

Advertisements
Track Severe Weather on mobile